sensor_id;sensor_type;location;lat;lon;timestamp;P1;durP1;ratioP1;P2;durP2;ratioP2
57667;SDS011;43499;52.366;12.912;2023-12-07T00:00:59;22.23;;;9.65;;
57667;SDS011;43499;52.366;12.912;2023-12-07T00:02:00;16.83;;;8.95;;
57667;SDS011;43499;52.366;12.912;2023-12-07T00:03:02;21.70;;;9.75;;
57667;SDS011;43499;52.366;12.912;2023-12-07T00:04:03;19.27;;;9.82;;
57667;SDS011;43499;52.366;12.912;2023-12-07T00:05:04;16.40;;;8.48;;
57667;SDS011;43499;52.366;12.912;2023-12-07T00:06:05;19.48;;;8.57;;
57667;SDS011;43499;52.366;12.912;2023-12-07T00:07:06;23.50;;;9.15;;
57667;SDS011;43499;52.366;12.912;2023-12-07T00:08:10;20.13;;;9.98;;
57667;SDS011;43499;52.366;12.912;2023-12-07T00:09:11;20.23;;;9.70;;
57667;SDS011;43499;52.366;12.912;2023-12-07T00:10:13;21.52;;;10.23;;
57667;SDS011;43499;52.366;12.912;2023-12-07T00:11:14;18.40;;;8.85;;
57667;SDS011;43499;52.366;12.912;2023-12-07T00:12:15;19.42;;;9.00;;
57667;SDS011;43499;52.366;12.912;2023-12-07T00:13:16;19.20;;;9.43;;
57667;SDS011;43499;52.366;12.912;2023-12-07T00:14:17;18.20;;;8.75;;
57667;SDS011;43499;52.366;12.912;2023-12-07T00:15:18;20.17;;;9.98;;
57667;SDS011;43499;52.366;12.912;2023-12-07T00:16:20;22.48;;;9.68;;
57667;SDS011;43499;52.366;12.912;2023-12-07T00:17:21;20.20;;;9.77;;
57667;SDS011;43499;52.366;12.912;2023-12-07T00:18:22;16.83;;;8.75;;
57667;SDS011;43499;52.366;12.912;2023-12-07T00:19:23;17.88;;;8.73;;
57667;SDS011;43499;52.366;12.912;2023-12-07T00:20:24;18.05;;;8.70;;
57667;SDS011;43499;52.366;12.912;2023-12-07T00:21:25;19.55;;;9.38;;
57667;SDS011;43499;52.366;12.912;2023-12-07T00:22:26;18.20;;;9.48;;
57667;SDS011;43499;52.366;12.912;2023-12-07T00:23:29;21.17;;;10.05;;
57667;SDS011;43499;52.366;12.912;2023-12-07T00:24:30;21.52;;;9.63;;
57667;SDS011;43499;52.366;12.912;2023-12-07T00:25:31;22.80;;;10.90;;
57667;SDS011;43499;52.366;12.912;2023-12-07T00:26:32;18.58;;;10.68;;
57667;SDS011;43499;52.366;12.912;2023-12-07T00:27:33;18.40;;;8.80;;
57667;SDS011;43499;52.366;12.912;2023-12-07T00:28:34;19.98;;;9.32;;
57667;SDS011;43499;52.366;12.912;2023-12-07T00:29:36;23.17;;;10.48;;
57667;SDS011;43499;52.366;12.912;2023-12-07T00:30:38;19.20;;;9.00;;
57667;SDS011;43499;52.366;12.912;2023-12-07T00:31:39;18.42;;;9.43;;
57667;SDS011;43499;52.366;12.912;2023-12-07T00:32:40;20.02;;;9.23;;
57667;SDS011;43499;52.366;12.912;2023-12-07T00:33:44;20.67;;;9.85;;
57667;SDS011;43499;52.366;12.912;2023-12-07T00:34:46;19.95;;;9.48;;
57667;SDS011;43499;52.366;12.912;2023-12-07T00:35:47;20.05;;;9.32;;
57667;SDS011;43499;52.366;12.912;2023-12-07T00:36:49;17.95;;;10.05;;
57667;SDS011;43499;52.366;12.912;2023-12-07T00:37:50;19.92;;;9.15;;
57667;SDS011;43499;52.366;12.912;2023-12-07T00:38:51;20.40;;;9.35;;
57667;SDS011;43499;52.366;12.912;2023-12-07T00:39:52;20.33;;;10.02;;
57667;SDS011;43499;52.366;12.912;2023-12-07T00:40:53;18.92;;;8.82;;
57667;SDS011;43499;52.366;12.912;2023-12-07T00:41:54;18.40;;;8.68;;
57667;SDS011;43499;52.366;12.912;2023-12-07T00:42:55;24.85;;;10.93;;
57667;SDS011;43499;52.366;12.912;2023-12-07T00:43:58;19.65;;;10.20;;
57667;SDS011;43499;52.366;12.912;2023-12-07T00:44:59;17.92;;;8.90;;
57667;SDS011;43499;52.366;12.912;2023-12-07T00:46:00;15.43;;;8.52;;
57667;SDS011;43499;52.366;12.912;2023-12-07T00:48:03;17.63;;;8.88;;
57667;SDS011;43499;52.366;12.912;2023-12-07T00:49:05;19.00;;;9.65;;
57667;SDS011;43499;52.366;12.912;2023-12-07T00:50:07;19.33;;;8.95;;
57667;SDS011;43499;52.366;12.912;2023-12-07T00:51:08;15.73;;;7.90;;
57667;SDS011;43499;52.366;12.912;2023-12-07T00:52:10;17.95;;;8.75;;
57667;SDS011;43499;52.366;12.912;2023-12-07T00:53:11;22.88;;;9.32;;
57667;SDS011;43499;52.366;12.912;2023-12-07T00:54:12;18.08;;;9.55;;
57667;SDS011;43499;52.366;12.912;2023-12-07T00:55:14;21.20;;;8.85;;
57667;SDS011;43499;52.366;12.912;2023-12-07T00:56:15;16.25;;;8.82;;
57667;SDS011;43499;52.366;12.912;2023-12-07T00:57:16;19.08;;;9.20;;
57667;SDS011;43499;52.366;12.912;2023-12-07T00:58:17;17.27;;;7.93;;
57667;SDS011;43499;52.366;12.912;2023-12-07T00:59:18;21.90;;;9.80;;
57667;SDS011;43499;52.366;12.912;2023-12-07T01:00:19;20.38;;;8.90;;
57667;SDS011;43499;52.366;12.912;2023-12-07T01:01:20;19.38;;;9.60;;
57667;SDS011;43499;52.366;12.912;2023-12-07T01:02:21;20.50;;;10.25;;
57667;SDS011;43499;52.366;12.912;2023-12-07T01:03:22;17.45;;;8.90;;
57667;SDS011;43499;52.366;12.912;2023-12-07T01:04:23;20.83;;;8.93;;
57667;SDS011;43499;52.366;12.912;2023-12-07T01:05:24;19.48;;;8.68;;
57667;SDS011;43499;52.366;12.912;2023-12-07T01:06:26;20.90;;;9.75;;
57667;SDS011;43499;52.366;12.912;2023-12-07T01:07:27;20.92;;;11.25;;
57667;SDS011;43499;52.366;12.912;2023-12-07T01:08:28;17.70;;;9.20;;
57667;SDS011;43499;52.366;12.912;2023-12-07T01:09:29;19.92;;;10.00;;
57667;SDS011;43499;52.366;12.912;2023-12-07T01:10:30;22.02;;;9.70;;
57667;SDS011;43499;52.366;12.912;2023-12-07T01:11:32;18.90;;;8.30;;
57667;SDS011;43499;52.366;12.912;2023-12-07T01:13:37;20.70;;;9.30;;
57667;SDS011;43499;52.366;12.912;2023-12-07T01:14:39;18.70;;;9.52;;
57667;SDS011;43499;52.366;12.912;2023-12-07T01:15:40;18.20;;;8.63;;
57667;SDS011;43499;52.366;12.912;2023-12-07T01:16:42;19.73;;;9.70;;
57667;SDS011;43499;52.366;12.912;2023-12-07T01:17:43;19.38;;;8.40;;
57667;SDS011;43499;52.366;12.912;2023-12-07T01:18:45;21.77;;;9.70;;
57667;SDS011;43499;52.366;12.912;2023-12-07T01:19:46;19.02;;;9.05;;
57667;SDS011;43499;52.366;12.912;2023-12-07T01:20:47;19.63;;;10.57;;
57667;SDS011;43499;52.366;12.912;2023-12-07T01:21:48;17.67;;;8.93;;
57667;SDS011;43499;52.366;12.912;2023-12-07T01:22:49;18.63;;;9.93;;
57667;SDS011;43499;52.366;12.912;2023-12-07T01:23:51;19.90;;;10.15;;
57667;SDS011;43499;52.366;12.912;2023-12-07T01:24:52;22.95;;;10.07;;
57667;SDS011;43499;52.366;12.912;2023-12-07T01:25:53;23.10;;;10.70;;
57667;SDS011;43499;52.366;12.912;2023-12-07T01:26:54;20.33;;;9.10;;
57667;SDS011;43499;52.366;12.912;2023-12-07T01:27:55;23.73;;;9.60;;
57667;SDS011;43499;52.366;12.912;2023-12-07T01:28:56;19.83;;;9.60;;
57667;SDS011;43499;52.366;12.912;2023-12-07T01:29:58;22.67;;;10.18;;
57667;SDS011;43499;52.366;12.912;2023-12-07T01:30:59;20.08;;;11.48;;
57667;SDS011;43499;52.366;12.912;2023-12-07T01:32:00;20.38;;;9.02;;
57667;SDS011;43499;52.366;12.912;2023-12-07T01:33:01;20.23;;;9.45;;
57667;SDS011;43499;52.366;12.912;2023-12-07T01:34:02;20.60;;;9.98;;
57667;SDS011;43499;52.366;12.912;2023-12-07T01:35:03;18.60;;;8.60;;
57667;SDS011;43499;52.366;12.912;2023-12-07T01:37:06;20.65;;;9.43;;
57667;SDS011;43499;52.366;12.912;2023-12-07T01:38:08;19.70;;;9.15;;
57667;SDS011;43499;52.366;12.912;2023-12-07T01:39:10;18.23;;;8.60;;
57667;SDS011;43499;52.366;12.912;2023-12-07T01:40:13;20.90;;;8.75;;
57667;SDS011;43499;52.366;12.912;2023-12-07T01:41:15;18.80;;;9.25;;
57667;SDS011;43499;52.366;12.912;2023-12-07T01:42:16;20.08;;;8.75;;
57667;SDS011;43499;52.366;12.912;2023-12-07T01:43:18;18.95;;;9.07;;
57667;SDS011;43499;52.366;12.912;2023-12-07T01:44:21;18.23;;;9.77;;
57667;SDS011;43499;52.366;12.912;2023-12-07T01:45:22;19.10;;;9.52;;
57667;SDS011;43499;52.366;12.912;2023-12-07T01:46:23;17.55;;;9.23;;
57667;SDS011;43499;52.366;12.912;2023-12-07T01:47:24;22.35;;;9.50;;
57667;SDS011;43499;52.366;12.912;2023-12-07T01:48:26;19.45;;;10.07;;
57667;SDS011;43499;52.366;12.912;2023-12-07T01:49:28;19.40;;;9.05;;
57667;SDS011;43499;52.366;12.912;2023-12-07T01:51:33;21.23;;;8.98;;
57667;SDS011;43499;52.366;12.912;2023-12-07T01:52:35;17.58;;;8.70;;
57667;SDS011;43499;52.366;12.912;2023-12-07T01:53:41;19.58;;;9.68;;
57667;SDS011;43499;52.366;12.912;2023-12-07T01:54:42;21.08;;;9.63;;
57667;SDS011;43499;52.366;12.912;2023-12-07T01:55:43;16.90;;;8.57;;
57667;SDS011;43499;52.366;12.912;2023-12-07T01:56:45;19.83;;;9.40;;
57667;SDS011;43499;52.366;12.912;2023-12-07T01:57:47;20.70;;;10.48;;
57667;SDS011;43499;52.366;12.912;2023-12-07T01:58:50;18.20;;;9.20;;
57667;SDS011;43499;52.366;12.912;2023-12-07T01:59:52;18.27;;;8.75;;
57667;SDS011;43499;52.366;12.912;2023-12-07T02:00:53;18.63;;;8.55;;
57667;SDS011;43499;52.366;12.912;2023-12-07T02:01:54;19.58;;;9.63;;
57667;SDS011;43499;52.366;12.912;2023-12-07T02:02:55;23.17;;;10.40;;
57667;SDS011;43499;52.366;12.912;2023-12-07T02:03:56;19.85;;;9.43;;
57667;SDS011;43499;52.366;12.912;2023-12-07T02:04:58;19.45;;;9.63;;
57667;SDS011;43499;52.366;12.912;2023-12-07T02:05:59;22.20;;;10.50;;
57667;SDS011;43499;52.366;12.912;2023-12-07T02:07:02;19.20;;;8.95;;
57667;SDS011;43499;52.366;12.912;2023-12-07T02:08:04;18.60;;;9.38;;
57667;SDS011;43499;52.366;12.912;2023-12-07T02:09:05;19.65;;;9.48;;
57667;SDS011;43499;52.366;12.912;2023-12-07T02:10:07;19.13;;;8.98;;
57667;SDS011;43499;52.366;12.912;2023-12-07T02:11:08;22.27;;;10.02;;
57667;SDS011;43499;52.366;12.912;2023-12-07T02:12:10;14.25;;;7.53;;
57667;SDS011;43499;52.366;12.912;2023-12-07T02:13:11;20.98;;;9.93;;
57667;SDS011;43499;52.366;12.912;2023-12-07T02:14:13;22.15;;;9.07;;
57667;SDS011;43499;52.366;12.912;2023-12-07T02:15:14;18.60;;;9.15;;
57667;SDS011;43499;52.366;12.912;2023-12-07T02:16:21;21.85;;;8.85;;
57667;SDS011;43499;52.366;12.912;2023-12-07T02:17:34;22.23;;;10.20;;
57667;SDS011;43499;52.366;12.912;2023-12-07T02:18:44;21.00;;;10.10;;
57667;SDS011;43499;52.366;12.912;2023-12-07T02:20:12;19.65;;;8.88;;
57667;SDS011;43499;52.366;12.912;2023-12-07T02:21:21;20.13;;;9.15;;
57667;SDS011;43499;52.366;12.912;2023-12-07T02:22:32;16.73;;;7.97;;
57667;SDS011;43499;52.366;12.912;2023-12-07T02:23:42;20.85;;;9.32;;
57667;SDS011;43499;52.366;12.912;2023-12-07T02:24:48;20.35;;;8.85;;
57667;SDS011;43499;52.366;12.912;2023-12-07T02:26:04;21.02;;;10.07;;
57667;SDS011;43499;52.366;12.912;2023-12-07T02:27:09;19.27;;;9.55;;
57667;SDS011;43499;52.366;12.912;2023-12-07T02:28:10;18.02;;;8.43;;
57667;SDS011;43499;52.366;12.912;2023-12-07T02:29:11;20.23;;;9.73;;
57667;SDS011;43499;52.366;12.912;2023-12-07T02:30:12;18.05;;;8.93;;
57667;SDS011;43499;52.366;12.912;2023-12-07T02:31:14;19.30;;;9.77;;
57667;SDS011;43499;52.366;12.912;2023-12-07T02:32:15;20.63;;;9.88;;
57667;SDS011;43499;52.366;12.912;2023-12-07T02:33:16;21.02;;;9.80;;
57667;SDS011;43499;52.366;12.912;2023-12-07T02:34:17;21.65;;;9.90;;
57667;SDS011;43499;52.366;12.912;2023-12-07T02:35:20;20.00;;;9.75;;
57667;SDS011;43499;52.366;12.912;2023-12-07T02:36:22;18.88;;;9.13;;
57667;SDS011;43499;52.366;12.912;2023-12-07T02:37:28;19.17;;;9.32;;
57667;SDS011;43499;52.366;12.912;2023-12-07T02:38:44;19.20;;;8.68;;
57667;SDS011;43499;52.366;12.912;2023-12-07T02:39:47;19.58;;;9.15;;
57667;SDS011;43499;52.366;12.912;2023-12-07T02:40:50;19.63;;;8.63;;
57667;SDS011;43499;52.366;12.912;2023-12-07T02:41:53;23.30;;;9.50;;
57667;SDS011;43499;52.366;12.912;2023-12-07T02:42:56;21.20;;;10.13;;
57667;SDS011;43499;52.366;12.912;2023-12-07T02:44:00;18.70;;;9.50;;
57667;SDS011;43499;52.366;12.912;2023-12-07T02:45:01;19.10;;;9.30;;
57667;SDS011;43499;52.366;12.912;2023-12-07T02:46:03;18.02;;;8.60;;
57667;SDS011;43499;52.366;12.912;2023-12-07T02:47:05;23.33;;;10.13;;
57667;SDS011;43499;52.366;12.912;2023-12-07T02:48:06;23.98;;;10.25;;
57667;SDS011;43499;52.366;12.912;2023-12-07T02:49:07;22.50;;;9.70;;
57667;SDS011;43499;52.366;12.912;2023-12-07T02:50:09;21.83;;;9.35;;
57667;SDS011;43499;52.366;12.912;2023-12-07T02:51:10;23.58;;;10.82;;
57667;SDS011;43499;52.366;12.912;2023-12-07T02:52:11;23.75;;;10.82;;
57667;SDS011;43499;52.366;12.912;2023-12-07T02:53:12;21.63;;;10.15;;
57667;SDS011;43499;52.366;12.912;2023-12-07T02:54:13;21.52;;;10.48;;
57667;SDS011;43499;52.366;12.912;2023-12-07T02:55:14;22.40;;;9.75;;
57667;SDS011;43499;52.366;12.912;2023-12-07T02:56:15;22.23;;;10.48;;
57667;SDS011;43499;52.366;12.912;2023-12-07T02:57:16;23.33;;;9.40;;
57667;SDS011;43499;52.366;12.912;2023-12-07T02:58:17;25.65;;;10.15;;
57667;SDS011;43499;52.366;12.912;2023-12-07T02:59:18;20.05;;;9.73;;
57667;SDS011;43499;52.366;12.912;2023-12-07T03:00:19;20.80;;;9.27;;
57667;SDS011;43499;52.366;12.912;2023-12-07T03:01:22;21.80;;;10.20;;
57667;SDS011;43499;52.366;12.912;2023-12-07T03:02:23;19.52;;;9.40;;
57667;SDS011;43499;52.366;12.912;2023-12-07T03:03:25;24.00;;;10.77;;
57667;SDS011;43499;52.366;12.912;2023-12-07T03:04:26;23.88;;;9.88;;
57667;SDS011;43499;52.366;12.912;2023-12-07T03:05:27;21.27;;;10.73;;
57667;SDS011;43499;52.366;12.912;2023-12-07T03:06:28;22.38;;;10.18;;
57667;SDS011;43499;52.366;12.912;2023-12-07T03:07:29;23.23;;;9.90;;
57667;SDS011;43499;52.366;12.912;2023-12-07T03:08:30;26.30;;;10.35;;
57667;SDS011;43499;52.366;12.912;2023-12-07T03:09:31;21.73;;;10.75;;
57667;SDS011;43499;52.366;12.912;2023-12-07T03:10:33;21.85;;;9.88;;
57667;SDS011;43499;52.366;12.912;2023-12-07T03:11:34;22.90;;;10.52;;
57667;SDS011;43499;52.366;12.912;2023-12-07T03:12:35;26.35;;;10.40;;
57667;SDS011;43499;52.366;12.912;2023-12-07T03:13:37;21.17;;;10.27;;
57667;SDS011;43499;52.366;12.912;2023-12-07T03:14:38;19.60;;;10.00;;
57667;SDS011;43499;52.366;12.912;2023-12-07T03:15:39;22.95;;;10.27;;
57667;SDS011;43499;52.366;12.912;2023-12-07T03:16:40;21.15;;;10.68;;
57667;SDS011;43499;52.366;12.912;2023-12-07T03:17:41;22.42;;;10.50;;
57667;SDS011;43499;52.366;12.912;2023-12-07T03:18:44;22.42;;;9.88;;
57667;SDS011;43499;52.366;12.912;2023-12-07T03:19:45;21.80;;;10.25;;
57667;SDS011;43499;52.366;12.912;2023-12-07T03:20:46;23.88;;;11.30;;
57667;SDS011;43499;52.366;12.912;2023-12-07T03:21:47;26.10;;;11.82;;
57667;SDS011;43499;52.366;12.912;2023-12-07T03:22:49;20.95;;;10.00;;
57667;SDS011;43499;52.366;12.912;2023-12-07T03:23:50;25.38;;;10.85;;
57667;SDS011;43499;52.366;12.912;2023-12-07T03:24:51;25.20;;;10.77;;
57667;SDS011;43499;52.366;12.912;2023-12-07T03:25:53;24.60;;;10.02;;
57667;SDS011;43499;52.366;12.912;2023-12-07T03:26:54;22.48;;;10.40;;
57667;SDS011;43499;52.366;12.912;2023-12-07T03:27:55;22.45;;;10.63;;
57667;SDS011;43499;52.366;12.912;2023-12-07T03:28:56;23.02;;;10.85;;
57667;SDS011;43499;52.366;12.912;2023-12-07T03:29:57;24.60;;;9.98;;
57667;SDS011;43499;52.366;12.912;2023-12-07T03:30:58;19.48;;;9.18;;
57667;SDS011;43499;52.366;12.912;2023-12-07T03:32:00;23.75;;;10.32;;
57667;SDS011;43499;52.366;12.912;2023-12-07T03:33:01;22.73;;;10.32;;
57667;SDS011;43499;52.366;12.912;2023-12-07T03:34:02;20.77;;;10.20;;
57667;SDS011;43499;52.366;12.912;2023-12-07T03:35:04;24.92;;;11.68;;
57667;SDS011;43499;52.366;12.912;2023-12-07T03:36:05;22.40;;;10.32;;
57667;SDS011;43499;52.366;12.912;2023-12-07T03:37:07;24.80;;;10.27;;
57667;SDS011;43499;52.366;12.912;2023-12-07T03:38:08;25.13;;;10.48;;
57667;SDS011;43499;52.366;12.912;2023-12-07T03:39:09;23.83;;;10.85;;
57667;SDS011;43499;52.366;12.912;2023-12-07T03:40:10;26.27;;;10.77;;
57667;SDS011;43499;52.366;12.912;2023-12-07T03:41:12;25.30;;;11.02;;
57667;SDS011;43499;52.366;12.912;2023-12-07T03:42:13;23.95;;;10.20;;
57667;SDS011;43499;52.366;12.912;2023-12-07T03:43:14;19.73;;;9.55;;
57667;SDS011;43499;52.366;12.912;2023-12-07T03:44:15;24.13;;;10.95;;
57667;SDS011;43499;52.366;12.912;2023-12-07T03:45:16;24.73;;;10.57;;
57667;SDS011;43499;52.366;12.912;2023-12-07T03:46:17;23.85;;;10.60;;
57667;SDS011;43499;52.366;12.912;2023-12-07T03:47:18;19.95;;;9.63;;
57667;SDS011;43499;52.366;12.912;2023-12-07T03:48:19;21.58;;;10.57;;
57667;SDS011;43499;52.366;12.912;2023-12-07T03:49:20;24.75;;;11.85;;
57667;SDS011;43499;52.366;12.912;2023-12-07T03:50:21;25.92;;;12.02;;
57667;SDS011;43499;52.366;12.912;2023-12-07T03:51:22;23.98;;;9.98;;
57667;SDS011;43499;52.366;12.912;2023-12-07T03:52:24;21.10;;;9.30;;
57667;SDS011;43499;52.366;12.912;2023-12-07T03:53:25;21.80;;;10.15;;
57667;SDS011;43499;52.366;12.912;2023-12-07T03:54:26;25.80;;;9.77;;
57667;SDS011;43499;52.366;12.912;2023-12-07T03:55:27;21.95;;;10.32;;
57667;SDS011;43499;52.366;12.912;2023-12-07T03:56:29;22.98;;;11.15;;
57667;SDS011;43499;52.366;12.912;2023-12-07T03:57:31;22.00;;;10.27;;
57667;SDS011;43499;52.366;12.912;2023-12-07T03:58:32;22.70;;;11.18;;
57667;SDS011;43499;52.366;12.912;2023-12-07T03:59:35;25.70;;;11.43;;
57667;SDS011;43499;52.366;12.912;2023-12-07T04:00:37;25.52;;;11.40;;
57667;SDS011;43499;52.366;12.912;2023-12-07T04:01:38;23.80;;;11.40;;
57667;SDS011;43499;52.366;12.912;2023-12-07T04:02:39;21.85;;;9.75;;
57667;SDS011;43499;52.366;12.912;2023-12-07T04:03:40;28.80;;;13.20;;
57667;SDS011;43499;52.366;12.912;2023-12-07T04:04:41;26.70;;;11.65;;
57667;SDS011;43499;52.366;12.912;2023-12-07T04:05:43;26.08;;;10.98;;
57667;SDS011;43499;52.366;12.912;2023-12-07T04:06:44;23.38;;;10.50;;
57667;SDS011;43499;52.366;12.912;2023-12-07T04:07:45;22.10;;;11.13;;
57667;SDS011;43499;52.366;12.912;2023-12-07T04:08:46;25.85;;;11.63;;
57667;SDS011;43499;52.366;12.912;2023-12-07T04:09:47;22.27;;;10.35;;
57667;SDS011;43499;52.366;12.912;2023-12-07T04:10:48;23.60;;;11.10;;
57667;SDS011;43499;52.366;12.912;2023-12-07T04:11:49;22.25;;;10.43;;
57667;SDS011;43499;52.366;12.912;2023-12-07T04:12:50;27.70;;;11.32;;
57667;SDS011;43499;52.366;12.912;2023-12-07T04:13:53;24.23;;;11.55;;
57667;SDS011;43499;52.366;12.912;2023-12-07T04:14:54;26.67;;;12.10;;
57667;SDS011;43499;52.366;12.912;2023-12-07T04:15:55;24.38;;;10.50;;
57667;SDS011;43499;52.366;12.912;2023-12-07T04:16:56;25.55;;;11.23;;
57667;SDS011;43499;52.366;12.912;2023-12-07T04:17:57;23.42;;;11.77;;
57667;SDS011;43499;52.366;12.912;2023-12-07T04:18:59;26.40;;;10.48;;
57667;SDS011;43499;52.366;12.912;2023-12-07T04:20:00;24.65;;;11.55;;
57667;SDS011;43499;52.366;12.912;2023-12-07T04:21:01;28.00;;;11.57;;
57667;SDS011;43499;52.366;12.912;2023-12-07T04:22:02;26.20;;;11.75;;
57667;SDS011;43499;52.366;12.912;2023-12-07T04:23:03;25.40;;;11.55;;
57667;SDS011;43499;52.366;12.912;2023-12-07T04:24:04;24.13;;;10.52;;
57667;SDS011;43499;52.366;12.912;2023-12-07T04:25:06;24.48;;;10.90;;
57667;SDS011;43499;52.366;12.912;2023-12-07T04:26:07;23.80;;;11.35;;
57667;SDS011;43499;52.366;12.912;2023-12-07T04:27:08;22.52;;;11.25;;
57667;SDS011;43499;52.366;12.912;2023-12-07T04:28:09;25.92;;;11.70;;
57667;SDS011;43499;52.366;12.912;2023-12-07T04:29:10;24.50;;;11.68;;
57667;SDS011;43499;52.366;12.912;2023-12-07T04:30:11;31.77;;;11.13;;
57667;SDS011;43499;52.366;12.912;2023-12-07T04:31:13;26.05;;;11.48;;
57667;SDS011;43499;52.366;12.912;2023-12-07T04:32:14;28.58;;;11.93;;
57667;SDS011;43499;52.366;12.912;2023-12-07T04:33:15;26.40;;;12.10;;
57667;SDS011;43499;52.366;12.912;2023-12-07T04:34:16;24.38;;;12.38;;
57667;SDS011;43499;52.366;12.912;2023-12-07T04:35:17;26.23;;;11.52;;
57667;SDS011;43499;52.366;12.912;2023-12-07T04:36:18;25.90;;;11.75;;
57667;SDS011;43499;52.366;12.912;2023-12-07T04:37:19;24.02;;;11.10;;
57667;SDS011;43499;52.366;12.912;2023-12-07T04:38:20;28.80;;;12.05;;
57667;SDS011;43499;52.366;12.912;2023-12-07T04:39:21;22.58;;;11.20;;
57667;SDS011;43499;52.366;12.912;2023-12-07T04:40:25;23.25;;;11.57;;
57667;SDS011;43499;52.366;12.912;2023-12-07T04:41:26;28.23;;;10.90;;
57667;SDS011;43499;52.366;12.912;2023-12-07T04:42:27;26.23;;;11.23;;
57667;SDS011;43499;52.366;12.912;2023-12-07T04:43:28;22.17;;;10.68;;
57667;SDS011;43499;52.366;12.912;2023-12-07T04:44:29;28.42;;;11.43;;
57667;SDS011;43499;52.366;12.912;2023-12-07T04:45:31;24.40;;;11.30;;
57667;SDS011;43499;52.366;12.912;2023-12-07T04:46:33;26.38;;;12.38;;
57667;SDS011;43499;52.366;12.912;2023-12-07T04:47:34;26.85;;;11.55;;
57667;SDS011;43499;52.366;12.912;2023-12-07T04:48:35;26.23;;;11.48;;
57667;SDS011;43499;52.366;12.912;2023-12-07T04:49:36;22.13;;;10.50;;
57667;SDS011;43499;52.366;12.912;2023-12-07T04:50:37;24.17;;;10.60;;
57667;SDS011;43499;52.366;12.912;2023-12-07T04:51:38;27.55;;;12.40;;
57667;SDS011;43499;52.366;12.912;2023-12-07T04:52:39;24.80;;;10.60;;
57667;SDS011;43499;52.366;12.912;2023-12-07T04:53:40;29.67;;;13.45;;
57667;SDS011;43499;52.366;12.912;2023-12-07T04:54:41;25.27;;;11.45;;
57667;SDS011;43499;52.366;12.912;2023-12-07T04:55:43;28.33;;;11.93;;
57667;SDS011;43499;52.366;12.912;2023-12-07T04:56:48;24.55;;;12.02;;
57667;SDS011;43499;52.366;12.912;2023-12-07T04:57:49;26.48;;;10.57;;
57667;SDS011;43499;52.366;12.912;2023-12-07T04:58:50;26.00;;;11.95;;
57667;SDS011;43499;52.366;12.912;2023-12-07T04:59:51;26.98;;;11.73;;
57667;SDS011;43499;52.366;12.912;2023-12-07T05:00:52;27.08;;;11.85;;
57667;SDS011;43499;52.366;12.912;2023-12-07T05:01:53;26.42;;;11.68;;
57667;SDS011;43499;52.366;12.912;2023-12-07T05:02:54;28.33;;;11.25;;
57667;SDS011;43499;52.366;12.912;2023-12-07T05:03:55;28.92;;;13.57;;
57667;SDS011;43499;52.366;12.912;2023-12-07T05:04:56;23.98;;;10.32;;
57667;SDS011;43499;52.366;12.912;2023-12-07T05:05:58;26.42;;;11.80;;
57667;SDS011;43499;52.366;12.912;2023-12-07T05:06:59;27.02;;;11.52;;
57667;SDS011;43499;52.366;12.912;2023-12-07T05:08:02;27.85;;;12.15;;
57667;SDS011;43499;52.366;12.912;2023-12-07T05:09:04;24.60;;;10.48;;
57667;SDS011;43499;52.366;12.912;2023-12-07T05:10:05;27.73;;;11.88;;
57667;SDS011;43499;52.366;12.912;2023-12-07T05:12:07;26.10;;;10.93;;
57667;SDS011;43499;52.366;12.912;2023-12-07T05:13:09;27.38;;;12.05;;
57667;SDS011;43499;52.366;12.912;2023-12-07T05:14:10;28.15;;;11.52;;
57667;SDS011;43499;52.366;12.912;2023-12-07T05:15:11;24.63;;;11.23;;
57667;SDS011;43499;52.366;12.912;2023-12-07T05:16:12;26.17;;;11.52;;
57667;SDS011;43499;52.366;12.912;2023-12-07T05:17:13;24.73;;;11.45;;
57667;SDS011;43499;52.366;12.912;2023-12-07T05:18:15;25.85;;;11.15;;
57667;SDS011;43499;52.366;12.912;2023-12-07T05:19:16;26.23;;;11.70;;
57667;SDS011;43499;52.366;12.912;2023-12-07T05:20:17;28.40;;;12.57;;
57667;SDS011;43499;52.366;12.912;2023-12-07T05:21:23;25.80;;;12.40;;
57667;SDS011;43499;52.366;12.912;2023-12-07T05:22:24;22.90;;;10.27;;
57667;SDS011;43499;52.366;12.912;2023-12-07T05:23:25;25.75;;;11.10;;
57667;SDS011;43499;52.366;12.912;2023-12-07T05:24:26;26.13;;;11.48;;
57667;SDS011;43499;52.366;12.912;2023-12-07T05:25:27;25.60;;;11.15;;
57667;SDS011;43499;52.366;12.912;2023-12-07T05:26:28;28.00;;;11.43;;
57667;SDS011;43499;52.366;12.912;2023-12-07T05:27:30;23.52;;;11.18;;
57667;SDS011;43499;52.366;12.912;2023-12-07T05:28:31;26.45;;;12.13;;
57667;SDS011;43499;52.366;12.912;2023-12-07T05:29:32;29.33;;;11.68;;
57667;SDS011;43499;52.366;12.912;2023-12-07T05:30:33;24.60;;;11.70;;
57667;SDS011;43499;52.366;12.912;2023-12-07T05:31:34;24.33;;;11.30;;
57667;SDS011;43499;52.366;12.912;2023-12-07T05:32:36;26.45;;;12.40;;
57667;SDS011;43499;52.366;12.912;2023-12-07T05:33:37;27.35;;;11.45;;
57667;SDS011;43499;52.366;12.912;2023-12-07T05:34:38;28.17;;;11.90;;
57667;SDS011;43499;52.366;12.912;2023-12-07T05:35:39;31.30;;;12.07;;
57667;SDS011;43499;52.366;12.912;2023-12-07T05:36:40;26.95;;;11.75;;
57667;SDS011;43499;52.366;12.912;2023-12-07T05:37:41;26.02;;;11.30;;
57667;SDS011;43499;52.366;12.912;2023-12-07T05:38:42;28.10;;;12.35;;
57667;SDS011;43499;52.366;12.912;2023-12-07T05:39:43;27.92;;;11.20;;
57667;SDS011;43499;52.366;12.912;2023-12-07T05:40:44;30.55;;;12.20;;
57667;SDS011;43499;52.366;12.912;2023-12-07T05:41:46;31.10;;;12.65;;
57667;SDS011;43499;52.366;12.912;2023-12-07T05:42:49;29.90;;;12.88;;
57667;SDS011;43499;52.366;12.912;2023-12-07T05:43:51;24.63;;;12.05;;
57667;SDS011;43499;52.366;12.912;2023-12-07T05:44:53;27.80;;;13.10;;
57667;SDS011;43499;52.366;12.912;2023-12-07T05:45:54;26.25;;;12.18;;
57667;SDS011;43499;52.366;12.912;2023-12-07T05:46:55;28.80;;;11.93;;
57667;SDS011;43499;52.366;12.912;2023-12-07T05:47:58;25.75;;;11.63;;
57667;SDS011;43499;52.366;12.912;2023-12-07T05:48:59;28.80;;;13.23;;
57667;SDS011;43499;52.366;12.912;2023-12-07T05:50:00;24.90;;;11.82;;
57667;SDS011;43499;52.366;12.912;2023-12-07T05:51:04;25.98;;;11.50;;
57667;SDS011;43499;52.366;12.912;2023-12-07T05:52:05;29.27;;;12.50;;
57667;SDS011;43499;52.366;12.912;2023-12-07T05:53:06;25.55;;;11.13;;
57667;SDS011;43499;52.366;12.912;2023-12-07T05:54:07;29.33;;;12.13;;
57667;SDS011;43499;52.366;12.912;2023-12-07T05:55:09;22.83;;;11.77;;
57667;SDS011;43499;52.366;12.912;2023-12-07T05:56:10;28.88;;;12.30;;
57667;SDS011;43499;52.366;12.912;2023-12-07T05:58:14;26.17;;;11.90;;
57667;SDS011;43499;52.366;12.912;2023-12-07T05:59:15;30.02;;;12.23;;
57667;SDS011;43499;52.366;12.912;2023-12-07T06:00:16;24.92;;;10.55;;
57667;SDS011;43499;52.366;12.912;2023-12-07T06:01:17;27.48;;;12.60;;
57667;SDS011;43499;52.366;12.912;2023-12-07T06:03:20;24.98;;;10.70;;
57667;SDS011;43499;52.366;12.912;2023-12-07T06:04:24;25.02;;;10.13;;
57667;SDS011;43499;52.366;12.912;2023-12-07T06:05:25;27.83;;;11.20;;